createdAt,value
2018-05-25T00:00:44.881Z,99.20
2018-05-25T00:01:44.891Z,99.30
2018-05-25T00:03:38.858Z,99.20
2018-05-25T00:04:38.354Z,99.20
2018-05-25T00:06:32.825Z,99.20
2018-05-25T00:07:32.797Z,99.01
2018-05-25T00:09:28.746Z,99.30
2018-05-25T00:10:28.756Z,99.20
2018-05-25T00:12:24.687Z,99.30
2018-05-25T00:13:25.208Z,99.40
2018-05-25T00:15:19.155Z,99.68
2018-05-25T00:16:19.151Z,99.73
2018-05-25T00:18:12.628Z,99.63
2018-05-25T00:19:12.613Z,99.63
2018-05-25T00:21:06.022Z,99.30
2018-05-25T00:22:06.025Z,99.44
2018-05-25T00:24:00.499Z,99.73
2018-05-25T00:25:00.494Z,99.49
2018-05-25T00:26:54.932Z,99.34
2018-05-25T00:27:55.447Z,99.34
2018-05-25T00:29:49.405Z,99.49
2018-05-25T00:30:49.394Z,99.54
2018-05-25T00:32:45.374Z,99.58
2018-05-25T00:33:45.342Z,99.30
2018-05-25T00:35:39.799Z,99.20
2018-05-25T00:36:39.795Z,99.10
2018-05-25T00:38:34.747Z,99.10
2018-05-25T00:39:35.760Z,99.20
2018-05-25T00:41:29.209Z,99.01
2018-05-25T00:42:28.659Z,99.20
2018-05-25T00:44:23.631Z,99.58
2018-05-25T00:45:23.131Z,99.49
2018-05-25T00:47:17.581Z,99.58
2018-05-25T00:48:17.585Z,99.01
2018-05-25T00:50:12.044Z,99.10
2018-05-25T00:51:12.035Z,99.40
2018-05-25T00:53:06.484Z,99.20
2018-05-25T00:54:06.481Z,99.10
2018-05-25T00:56:00.959Z,99.20
2018-05-25T00:57:00.949Z,99.30
2018-05-25T00:58:55.905Z,99.20
2018-05-25T00:59:55.418Z,99.20
2018-05-25T01:01:50.348Z,99.58
2018-05-25T01:02:49.844Z,99.40
2018-05-25T01:04:45.317Z,99.20
2018-05-25T01:05:44.300Z,99.99
2018-05-25T01:07:37.756Z,99.78
2018-05-25T01:08:38.682Z,99.99
2018-05-25T01:10:31.715Z,99.99
2018-05-25T01:11:31.302Z,99.99
2018-05-25T01:13:24.672Z,99.73
2018-05-25T01:14:25.681Z,99.99
2018-05-25T01:16:20.572Z,99.92
2018-05-25T01:17:19.145Z,99.99
2018-05-25T01:19:13.585Z,99.92
2018-05-25T01:20:13.596Z,99.92
2018-05-25T01:22:08.053Z,99.63
2018-05-25T01:23:07.045Z,99.54
2018-05-25T01:25:02.993Z,99.82
2018-05-25T01:26:03.002Z,99.99
2018-05-25T01:27:57.480Z,99.99
2018-05-25T01:28:57.449Z,99.99
2018-05-25T01:30:50.926Z,99.73
2018-05-25T01:31:50.861Z,99.73
2018-05-25T01:33:46.817Z,99.82
2018-05-25T01:34:47.329Z,99.82
2018-05-25T01:36:41.276Z,99.99
2018-05-25T01:37:41.273Z,99.63
2018-05-25T01:39:34.731Z,99.82
2018-05-25T01:40:34.724Z,99.99
2018-05-25T01:42:28.184Z,99.99
2018-05-25T01:43:28.687Z,99.99
2018-05-25T01:45:23.162Z,99.99
2018-05-25T01:46:22.647Z,99.99
2018-05-25T01:48:18.096Z,99.99
2018-05-25T01:49:17.079Z,99.99
2018-05-25T01:51:12.045Z,99.99
2018-05-25T01:52:11.506Z,99.99
2018-05-25T01:54:05.976Z,99.99
2018-05-25T01:55:05.957Z,99.99
2018-05-25T01:57:01.945Z,99.99
2018-05-25T01:58:01.918Z,99.99
2018-05-25T01:59:56.379Z,99.99
2018-05-25T02:00:56.384Z,99.99
2018-05-25T02:02:52.317Z,99.99
2018-05-25T02:03:52.319Z,99.99
2018-05-25T02:05:46.282Z,99.99
2018-05-25T02:06:45.781Z,99.99
2018-05-25T02:08:39.740Z,99.99
2018-05-25T02:09:39.237Z,99.99
2018-05-25T02:11:35.200Z,99.99
2018-05-25T02:12:35.152Z,99.99
2018-05-25T02:14:30.158Z,99.99
2018-05-25T02:15:29.585Z,99.99
2018-05-25T02:17:25.550Z,99.99
2018-05-25T02:18:25.548Z,99.99
2018-05-25T02:20:19.006Z,99.99
2018-05-25T02:21:19.507Z,99.99
2018-05-25T02:23:13.445Z,99.99
2018-05-25T02:24:13.455Z,99.99
2018-05-25T02:26:09.417Z,99.99
2018-05-25T02:27:09.400Z,99.99
2018-05-25T02:29:04.369Z,99.99
2018-05-25T02:30:03.873Z,99.99
2018-05-25T02:32:00.828Z,99.99
2018-05-25T02:33:00.328Z,99.99
2018-05-25T02:34:53.277Z,99.99
2018-05-25T02:35:53.272Z,99.99
2018-05-25T02:37:48.235Z,99.99
2018-05-25T02:38:48.661Z,99.99
2018-05-25T02:40:41.188Z,99.99
2018-05-25T02:41:41.184Z,99.99
2018-05-25T02:43:38.147Z,99.99
2018-05-25T02:44:37.652Z,99.99
2018-05-25T02:46:30.617Z,99.99
2018-05-25T02:47:30.623Z,99.99
2018-05-25T02:49:25.092Z,99.99
2018-05-25T02:50:26.076Z,99.99
2018-05-25T02:52:20.045Z,99.99
2018-05-25T02:53:19.558Z,99.99
2018-05-25T02:55:14.497Z,99.99
2018-05-25T02:56:13.994Z,99.99
2018-05-25T02:58:08.482Z,99.99
2018-05-25T02:59:08.443Z,99.99
2018-05-25T03:01:02.865Z,99.99
2018-05-25T03:02:02.850Z,99.99
2018-05-25T03:03:57.330Z,99.99
2018-05-25T03:04:57.305Z,99.99
2018-05-25T03:06:53.286Z,99.99
2018-05-25T03:07:53.764Z,99.99
2018-05-25T03:09:46.735Z,99.99
2018-05-25T03:10:46.699Z,99.99
2018-05-25T03:12:42.693Z,99.99
2018-05-25T03:13:43.170Z,99.99
2018-05-25T03:15:37.142Z,99.99
2018-05-25T03:16:37.130Z,99.99
2018-05-25T03:18:31.085Z,99.99
2018-05-25T03:19:30.568Z,99.99
2018-05-25T03:21:25.543Z,99.99
2018-05-25T03:22:25.042Z,99.99
2018-05-25T03:24:19.966Z,99.99
2018-05-25T03:25:19.444Z,99.99
2018-05-25T03:27:15.907Z,99.99
2018-05-25T03:28:15.391Z,99.99
2018-05-25T03:30:10.843Z,99.99
2018-05-25T03:31:10.854Z,99.99
2018-05-25T03:33:04.331Z,99.99
2018-05-25T03:34:05.298Z,99.99
2018-05-25T03:36:00.287Z,99.99
2018-05-25T03:37:00.763Z,99.99
2018-05-25T03:38:54.744Z,99.99
2018-05-25T03:39:54.720Z,99.99
2018-05-25T03:41:48.183Z,99.99
2018-05-25T03:42:48.179Z,99.99
2018-05-25T03:44:43.128Z,99.99
2018-05-25T03:45:42.607Z,99.99
2018-05-25T03:47:36.062Z,99.99
2018-05-25T03:48:36.090Z,99.99
2018-05-25T03:50:32.033Z,99.99
2018-05-25T03:51:32.527Z,99.99
2018-05-25T03:53:25.978Z,99.99
2018-05-25T03:54:26.487Z,99.99
2018-05-25T03:56:19.937Z,99.99
2018-05-25T03:57:19.938Z,99.99
2018-05-25T03:59:15.391Z,99.99
2018-05-25T04:00:14.388Z,99.99
2018-05-25T04:02:10.363Z,99.99
2018-05-25T04:03:10.351Z,99.99
2018-05-25T04:05:05.299Z,99.99
2018-05-25T04:06:04.808Z,99.99
2018-05-25T04:08:00.191Z,99.99
2018-05-25T04:09:00.251Z,99.99
2018-05-25T04:10:55.190Z,99.99
2018-05-25T04:11:55.180Z,99.99
2018-05-25T04:13:51.158Z,99.99
2018-05-25T04:14:51.155Z,99.99
2018-05-25T04:16:45.626Z,99.99
2018-05-25T04:17:45.595Z,99.99
2018-05-25T04:19:40.035Z,99.99
2018-05-25T04:20:40.057Z,99.99
2018-05-25T04:22:34.999Z,99.99
2018-05-25T04:23:34.494Z,99.99
2018-05-25T04:25:30.482Z,99.99
2018-05-25T04:26:30.444Z,99.99
2018-05-25T04:28:24.927Z,99.99
2018-05-25T04:29:24.901Z,99.99
2018-05-25T04:31:18.399Z,99.99
2018-05-25T04:32:18.302Z,99.99
2018-05-25T04:34:11.781Z,99.99
2018-05-25T04:35:11.782Z,99.99
2018-05-25T04:37:06.737Z,99.99
2018-05-25T04:38:06.229Z,99.99
2018-05-25T04:40:02.204Z,99.99
2018-05-25T04:41:02.175Z,99.99
2018-05-25T04:42:56.655Z,99.99
2018-05-25T04:43:56.609Z,99.99
2018-05-25T04:45:52.596Z,99.99
2018-05-25T04:46:52.599Z,99.99
2018-05-25T04:48:48.514Z,99.99
2018-05-25T04:49:48.536Z,99.99
2018-05-25T04:51:44.455Z,99.99
2018-05-25T04:52:44.454Z,99.99
2018-05-25T04:54:40.924Z,99.99
2018-05-25T04:55:40.927Z,99.68
2018-05-25T04:57:35.374Z,99.58
2018-05-25T04:58:34.859Z,98.91
2018-05-25T05:00:30.853Z,98.39
2018-05-25T05:01:31.826Z,98.48
2018-05-25T05:03:26.734Z,98.00
2018-05-25T05:04:25.296Z,98.29
2018-05-25T05:06:21.277Z,98.00
2018-05-25T05:07:21.260Z,98.10
2018-05-25T05:09:17.229Z,98.00
2018-05-25T05:10:18.226Z,98.68
2018-05-25T05:12:11.667Z,98.39
2018-05-25T05:13:13.209Z,98.39
2018-05-25T05:15:09.131Z,98.10
2018-05-25T05:16:06.141Z,98.29
2018-05-25T05:18:00.628Z,98.19
2018-05-25T05:19:00.610Z,98.58
2018-05-25T05:20:56.513Z,98.48
2018-05-25T05:21:56.567Z,98.58
2018-05-25T05:23:53.480Z,98.29
2018-05-25T05:24:52.505Z,98.58
2018-05-25T05:26:47.000Z,98.48
2018-05-25T05:27:48.448Z,98.58
2018-05-25T05:29:40.417Z,97.96
2018-05-25T05:30:41.408Z,97.57
2018-05-25T05:32:36.381Z,97.19
2018-05-25T05:33:36.393Z,97.09
2018-05-25T05:35:29.817Z,97.62
2018-05-25T05:36:29.805Z,96.85
2018-05-25T05:38:25.763Z,96.17
2018-05-25T05:39:25.765Z,96.37
2018-05-25T05:41:21.746Z,95.89
2018-05-25T05:42:22.217Z,95.84
2018-05-25T05:44:17.670Z,95.45
2018-05-25T05:45:17.664Z,95.65
2018-05-25T05:47:12.110Z,95.94
2018-05-25T05:48:12.117Z,95.89
2018-05-25T05:50:06.576Z,95.55
2018-05-25T05:51:06.571Z,95.65
2018-05-25T05:53:01.041Z,95.36
2018-05-25T05:54:01.026Z,94.59
2018-05-25T05:55:55.497Z,95.65
2018-05-25T05:56:55.987Z,95.94
2018-05-25T05:58:52.447Z,95.74
2018-05-25T05:59:51.944Z,95.55
2018-05-25T06:01:45.935Z,95.45
2018-05-25T06:02:45.893Z,95.55
2018-05-25T06:04:40.344Z,95.45
2018-05-25T06:05:40.354Z,96.03
2018-05-25T06:07:36.315Z,96.03
2018-05-25T06:08:34.778Z,95.65
2018-05-25T06:10:29.754Z,95.65
2018-05-25T06:11:29.247Z,95.74
2018-05-25T06:13:25.711Z,95.74
2018-05-25T06:14:25.201Z,95.65
2018-05-25T06:16:22.162Z,95.74
2018-05-25T06:17:21.154Z,95.94
2018-05-25T06:19:16.692Z,95.94
2018-05-25T06:20:15.609Z,96.12
2018-05-25T06:22:09.068Z,95.94
2018-05-25T06:23:09.058Z,96.22
2018-05-25T06:25:03.054Z,96.22
2018-05-25T06:26:02.521Z,96.70
2018-05-25T06:28:00.485Z,96.12
2018-05-25T06:28:58.991Z,96.32
2018-05-25T06:30:54.477Z,96.42
2018-05-25T06:31:55.367Z,95.84
2018-05-25T06:33:48.877Z,96.61
2018-05-25T06:34:48.889Z,96.17
2018-05-25T06:36:45.765Z,95.31
2018-05-25T06:37:44.800Z,95.02
2018-05-25T06:39:40.790Z,94.29
2018-05-25T06:40:41.775Z,94.29
2018-05-25T06:42:35.275Z,93.52
2018-05-25T06:43:35.768Z,93.86
2018-05-25T06:45:31.695Z,92.99
2018-05-25T06:46:29.690Z,93.09
2018-05-25T06:48:26.655Z,93.09
2018-05-25T06:49:26.647Z,92.80
2018-05-25T06:51:23.125Z,93.19
2018-05-25T06:52:21.589Z,93.33
2018-05-25T06:54:17.569Z,93.62
2018-05-25T06:55:17.570Z,93.38
2018-05-25T06:57:12.034Z,93.19
2018-05-25T06:58:11.025Z,92.80
2018-05-25T07:00:07.008Z,92.90
2018-05-25T07:01:07.479Z,92.99
2018-05-25T07:03:02.979Z,92.99
2018-05-25T07:04:02.974Z,93.09
2018-05-25T07:05:58.922Z,92.71
2018-05-25T07:06:58.947Z,93.48
2018-05-25T07:08:55.433Z,93.33
2018-05-25T07:09:54.914Z,93.33
2018-05-25T07:11:50.862Z,93.38
2018-05-25T07:12:51.354Z,93.48
2018-05-25T07:14:46.821Z,93.48
2018-05-25T07:15:48.300Z,93.66
2018-05-25T07:17:43.280Z,93.28
2018-05-25T07:18:44.266Z,92.56
2018-05-25T07:20:39.716Z,91.88
2018-05-25T07:21:38.745Z,91.78
2018-05-25T07:23:36.671Z,91.98
2018-05-25T07:24:34.680Z,91.88
2018-05-25T07:26:30.637Z,91.98
2018-05-25T07:27:31.635Z,91.98
2018-05-25T07:29:27.140Z,91.69
2018-05-25T07:30:27.617Z,91.98
2018-05-25T07:32:24.089Z,91.30
2018-05-25T07:33:22.591Z,91.69
2018-05-25T07:35:19.066Z,91.54
2018-05-25T07:36:19.044Z,91.50
2018-05-25T07:38:12.022Z,91.64
2018-05-25T07:39:12.012Z,91.74
2018-05-25T07:41:07.976Z,90.77
2018-05-25T07:42:09.465Z,90.38
2018-05-25T07:44:03.889Z,90.00
2018-05-25T07:45:03.947Z,90.19
2018-05-25T07:46:59.854Z,90.14
2018-05-25T07:47:59.853Z,89.95
2018-05-25T07:49:56.328Z,89.75
2018-05-25T07:50:55.814Z,89.47
2018-05-25T07:52:59.768Z,90.05
2018-05-25T07:53:57.784Z,89.85
2018-05-25T07:55:52.754Z,89.65
2018-05-25T07:56:53.253Z,89.47
2018-05-25T07:58:49.155Z,89.07
2018-05-25T07:59:48.236Z,89.07
2018-05-25T08:01:44.727Z,88.73
2018-05-25T08:02:44.154Z,88.83
2018-05-25T08:04:40.646Z,88.15
2018-05-25T08:05:40.127Z,88.20
2018-05-25T08:07:37.097Z,87.04
2018-05-25T08:08:36.100Z,86.94
2018-05-25T08:10:40.235Z,86.85
2018-05-25T08:11:41.062Z,86.07
2018-05-25T08:13:36.189Z,86.65
2018-05-25T08:14:36.200Z,86.17
2018-05-25T08:16:34.195Z,86.27
2018-05-25T08:17:34.232Z,86.85
2018-05-25T08:19:30.635Z,86.36
2018-05-25T08:20:30.159Z,86.27
2018-05-25T08:22:29.659Z,85.49
2018-05-25T08:23:29.100Z,85.83
2018-05-25T08:25:25.210Z,85.35
2018-05-25T08:26:24.765Z,85.53
2018-05-25T08:28:22.177Z,84.38
2018-05-25T08:29:22.219Z,84.80
2018-05-25T08:31:19.723Z,84.57
2018-05-25T08:32:19.665Z,84.95
2018-05-25T08:34:17.094Z,85.93
2018-05-25T08:35:18.011Z,84.77
2018-05-25T08:37:14.067Z,84.03
2018-05-25T08:38:13.584Z,83.94
2018-05-25T08:40:09.064Z,84.03
2018-05-25T08:41:09.021Z,84.42
2018-05-25T08:43:07.483Z,84.80
2018-05-25T08:44:06.977Z,84.32
2018-05-25T08:46:05.439Z,83.64
2018-05-25T08:47:05.113Z,83.59
2018-05-25T08:49:02.573Z,83.06
2018-05-25T08:50:02.068Z,83.16
2018-05-25T08:51:58.058Z,82.78
2018-05-25T08:52:59.042Z,83.36
2018-05-25T08:54:53.998Z,81.32
2018-05-25T08:55:54.024Z,81.23
2018-05-25T08:57:53.483Z,80.74
2018-05-25T08:58:52.197Z,81.32
2018-05-25T09:00:49.659Z,81.62
2018-05-25T09:01:49.653Z,81.85
2018-05-25T09:03:44.085Z,81.71
2018-05-25T09:06:02.981Z,81.75
2018-05-25T09:07:04.040Z,81.17
2018-05-25T09:08:58.031Z,83.12
2018-05-25T09:09:58.032Z,83.26
2018-05-25T09:11:52.509Z,82.48
2018-05-25T09:12:53.494Z,81.62
2018-05-25T09:14:48.494Z,80.88
2018-05-25T09:15:48.467Z,81.56
2018-05-25T09:17:43.441Z,80.69
2018-05-25T09:18:41.998Z,80.49
2018-05-25T09:20:36.467Z,81.32
2018-05-25T09:21:38.477Z,81.32
2018-05-25T09:23:33.945Z,81.32
2018-05-25T09:24:33.434Z,81.04
2018-05-25T09:26:29.930Z,81.04
2018-05-25T09:27:29.425Z,80.98
2018-05-25T09:29:24.453Z,80.11
2018-05-25T09:30:24.471Z,78.56
2018-05-25T09:32:17.938Z,79.82
2018-05-25T09:33:18.914Z,78.41
2018-05-25T09:35:13.897Z,77.24
2018-05-25T09:36:13.909Z,77.73
2018-05-25T09:38:12.379Z,75.21
2018-05-25T09:39:10.891Z,76.08
2018-05-25T09:41:07.376Z,76.86
2018-05-25T09:42:07.300Z,76.56
2018-05-25T09:44:01.930Z,74.73
2018-05-25T09:45:02.728Z,74.79
2018-05-25T09:46:58.833Z,76.62
2018-05-25T09:49:13.841Z,73.08
2018-05-25T09:50:13.845Z,74.53
2018-05-25T09:52:09.809Z,77.01
2018-05-25T09:53:09.808Z,76.91
2018-05-25T09:55:06.773Z,77.05
2018-05-25T09:57:21.741Z,74.86
2018-05-25T09:58:22.233Z,73.69
2018-05-25T10:00:18.696Z,74.05
2018-05-25T10:01:18.704Z,73.41
2018-05-25T10:03:15.227Z,71.18
2018-05-25T10:04:13.710Z,70.73
2018-05-25T10:06:10.687Z,70.73
2018-05-25T10:07:09.705Z,70.92
2018-05-25T10:09:07.714Z,70.34
2018-05-25T10:10:06.671Z,71.12
2018-05-25T10:12:00.182Z,70.70
2018-05-25T10:13:00.180Z,71.02
2018-05-25T10:14:56.705Z,66.85
2018-05-25T10:15:57.149Z,67.34
2018-05-25T10:17:53.168Z,68.63
2018-05-25T10:18:53.140Z,66.69
2018-05-25T10:20:45.633Z,64.17
2018-05-25T10:21:46.125Z,64.07
2018-05-25T10:23:42.106Z,63.88
2018-05-25T10:26:37.567Z,65.27
2018-05-25T10:27:38.568Z,64.88
2018-05-25T10:29:31.537Z,63.69
2018-05-25T10:30:31.048Z,64.27
2018-05-25T10:32:27.021Z,66.30
2018-05-25T10:33:26.996Z,65.63
2018-05-25T10:35:22.973Z,65.17
2018-05-25T10:36:22.957Z,64.11
2018-05-25T10:38:19.453Z,64.11
2018-05-25T10:39:18.941Z,64.40
2018-05-25T10:41:15.491Z,64.01
2018-05-25T10:42:15.412Z,63.30
2018-05-25T10:44:12.839Z,64.17
2018-05-25T10:45:12.837Z,64.65
2018-05-25T10:47:09.324Z,65.14
2018-05-25T10:48:09.815Z,65.05
2018-05-25T10:50:05.316Z,65.92
2018-05-25T10:51:05.320Z,65.27
2018-05-25T10:53:00.782Z,65.47
2018-05-25T10:53:59.281Z,63.72
2018-05-25T10:55:56.800Z,64.20
2018-05-25T10:58:11.271Z,63.69
2018-05-25T10:59:11.230Z,64.17
2018-05-25T11:01:08.201Z,64.27
2018-05-25T11:02:08.727Z,63.10
2018-05-25T11:04:06.163Z,63.04
2018-05-25T11:05:06.147Z,62.95
2018-05-25T11:07:01.111Z,63.95
2018-05-25T11:08:01.116Z,62.88
2018-05-25T11:09:57.117Z,62.19
2018-05-25T11:10:57.096Z,61.42
2018-05-25T11:12:54.557Z,61.52
2018-05-25T11:13:53.060Z,61.04
2018-05-25T11:15:48.028Z,60.45
2018-05-25T11:16:47.524Z,60.64
2018-05-25T11:18:43.525Z,59.19
2018-05-25T11:19:43.514Z,59.38
2018-05-25T11:21:39.981Z,59.84
2018-05-25T11:22:39.442Z,59.48
2018-05-25T11:24:35.439Z,58.61
2018-05-25T11:25:35.427Z,59.36
2018-05-25T11:27:31.399Z,58.12
2018-05-25T11:28:31.401Z,57.25
2018-05-25T11:30:28.855Z,57.51
2018-05-25T11:31:28.360Z,58.22
2018-05-25T11:33:23.364Z,56.76
2018-05-25T11:34:23.370Z,57.15
2018-05-25T11:36:19.339Z,56.60
2018-05-25T11:37:19.339Z,55.53
2018-05-25T11:39:14.339Z,56.70
2018-05-25T11:40:14.811Z,56.34
2018-05-25T11:42:08.342Z,56.52
2018-05-25T11:43:09.311Z,55.55
2018-05-25T11:45:03.334Z,56.50
2018-05-25T11:46:02.854Z,56.01
2018-05-25T11:47:58.774Z,55.82
2018-05-25T11:48:58.804Z,55.73
2018-05-25T11:50:53.761Z,56.37
2018-05-25T11:51:53.762Z,56.18
2018-05-25T11:53:49.219Z,56.70
2018-05-25T11:54:49.208Z,56.76
2018-05-25T11:56:43.686Z,56.76
2018-05-25T11:57:45.173Z,57.34
2018-05-25T11:59:39.642Z,56.60
2018-05-25T12:00:40.635Z,55.60
2018-05-25T12:02:37.043Z,55.92
2018-05-25T12:03:35.617Z,55.41
2018-05-25T12:05:32.504Z,57.06
2018-05-25T12:06:31.648Z,56.47
2018-05-25T12:08:29.535Z,55.21
2018-05-25T12:09:29.557Z,54.53
2018-05-25T12:11:25.500Z,55.02
2018-05-25T12:12:25.507Z,56.35
2018-05-25T12:14:21.492Z,57.22
2018-05-25T12:15:21.486Z,56.93
2018-05-25T12:17:17.443Z,56.64
2018-05-25T12:18:17.455Z,56.76
2018-05-25T12:20:14.421Z,56.15
2018-05-25T12:21:14.454Z,57.15
2018-05-25T12:23:10.400Z,56.47
2018-05-25T12:24:09.476Z,56.30
2018-05-25T12:26:05.437Z,57.18
2018-05-25T12:28:22.930Z,56.50
2018-05-25T12:29:21.406Z,56.60
2018-05-25T12:31:17.883Z,56.40
2018-05-25T12:32:17.397Z,55.04
2018-05-25T12:34:13.305Z,55.04
2018-05-25T12:35:13.312Z,54.58
2018-05-25T12:37:09.275Z,53.20
2018-05-25T12:38:09.271Z,54.46
2018-05-25T12:40:04.229Z,54.92
2018-05-25T12:41:05.727Z,55.02
2018-05-25T12:42:59.723Z,54.75
2018-05-25T12:45:55.185Z,53.22
2018-05-25T12:46:54.689Z,53.71
2018-05-25T12:48:53.947Z,53.00
2018-05-25T12:54:08.347Z,51.77
2018-05-25T12:56:58.297Z,51.67
2018-05-25T12:57:56.364Z,51.84
2018-05-25T12:59:53.323Z,53.00
2018-05-25T13:00:52.365Z,52.52
2018-05-25T13:02:48.291Z,54.17
2018-05-25T13:03:49.289Z,53.39
2018-05-25T13:05:44.251Z,52.35
2018-05-25T13:08:40.240Z,52.81
2018-05-25T13:09:40.236Z,53.71
2018-05-25T13:11:36.203Z,52.25
2018-05-25T13:12:34.691Z,52.64
2018-05-25T13:14:30.172Z,52.74
2018-05-25T13:15:30.150Z,52.74
2018-05-25T13:17:25.687Z,52.94
2018-05-25T13:18:25.140Z,54.29
2018-05-25T13:20:21.126Z,52.64
2018-05-25T13:21:22.105Z,52.55
2018-05-25T13:23:18.603Z,53.32
2018-05-25T13:25:33.579Z,51.48
2018-05-25T13:26:33.553Z,51.57
2018-05-25T13:28:29.023Z,51.57
2018-05-25T13:29:30.009Z,52.06
2018-05-25T13:31:25.980Z,53.52
2018-05-25T13:32:26.421Z,51.45
2018-05-25T13:34:20.960Z,52.23
2018-05-25T13:35:21.927Z,52.13
2018-05-25T13:37:17.409Z,52.42
2018-05-25T13:38:17.402Z,52.52
2018-05-25T13:40:12.890Z,53.30
2018-05-25T13:41:12.868Z,53.59
2018-05-25T13:43:08.834Z,53.39
2018-05-25T13:44:08.844Z,53.00
2018-05-25T13:46:04.817Z,51.93
2018-05-25T13:47:04.812Z,51.75
2018-05-25T13:49:05.293Z,51.75
2018-05-25T13:50:06.265Z,51.26
2018-05-25T13:52:06.267Z,51.45
2018-05-25T13:53:06.753Z,51.35
2018-05-25T13:55:02.733Z,50.70
2018-05-25T13:56:02.757Z,51.57
2018-05-25T13:57:58.217Z,51.48
2018-05-25T13:58:57.738Z,51.67
2018-05-25T14:00:55.703Z,51.57
2018-05-25T14:01:55.772Z,51.48
2018-05-25T14:03:53.765Z,51.31
2018-05-25T14:04:53.669Z,51.97
2018-05-25T14:06:49.677Z,50.80
2018-05-25T14:07:49.664Z,51.18
2018-05-25T14:09:47.647Z,50.82
2018-05-25T14:10:47.642Z,50.92
2018-05-25T14:12:44.639Z,49.68
2018-05-25T14:13:43.647Z,49.76
2018-05-25T14:15:39.581Z,50.14
2018-05-25T14:16:39.579Z,49.85
2018-05-25T14:18:35.621Z,50.16
2018-05-25T14:20:51.726Z,49.32
2018-05-25T14:21:51.485Z,49.12
2018-05-25T14:23:47.491Z,48.44
2018-05-25T14:24:47.474Z,48.15
2018-05-25T14:26:44.463Z,47.47
2018-05-25T14:28:59.948Z,48.03
2018-05-25T14:30:00.444Z,48.15
2018-05-25T14:31:55.434Z,47.83
2018-05-25T14:32:55.414Z,48.13
2018-05-25T14:34:53.387Z,49.49
2018-05-25T14:37:08.897Z,49.78
2018-05-25T14:38:07.422Z,48.58
2018-05-25T14:40:05.791Z,49.66
2018-05-25T14:41:04.354Z,48.95
2018-05-25T14:43:01.898Z,49.63
2018-05-25T14:44:01.552Z,49.44
2018-05-25T14:46:04.566Z,49.34
2018-05-25T14:46:59.505Z,49.05
2018-05-25T14:48:56.479Z,49.24
2018-05-25T14:49:56.482Z,50.21
2018-05-25T14:51:55.984Z,49.71
2018-05-25T14:52:51.477Z,49.54
2018-05-25T14:54:49.591Z,50.29
2018-05-25T14:55:50.443Z,50.48
2018-05-25T14:57:46.610Z,50.48
2018-05-25T14:58:46.519Z,50.48
2018-05-25T15:00:42.606Z,50.96
2018-05-25T15:01:41.672Z,52.52
2018-05-25T15:03:38.633Z,51.87
2018-05-25T15:05:55.581Z,51.28
2018-05-25T15:06:54.604Z,51.28
2018-05-25T15:09:15.575Z,50.63
2018-05-25T15:10:13.074Z,51.70
2018-05-25T15:12:11.303Z,51.77
2018-05-25T15:13:11.383Z,53.03
2018-05-25T15:15:09.947Z,54.66
2018-05-25T15:16:10.459Z,54.17
2018-05-25T15:18:07.420Z,54.94
2018-05-25T15:19:07.427Z,56.21
2018-05-25T15:21:04.755Z,54.56
2018-05-25T15:22:04.554Z,54.85
2018-05-25T15:24:03.160Z,56.21
2018-05-25T15:25:02.530Z,55.07
2018-05-25T15:27:01.045Z,55.24
2018-05-25T15:28:00.509Z,56.11
2018-05-25T15:29:59.005Z,56.89
2018-05-25T15:30:58.681Z,55.85
2018-05-25T15:32:58.141Z,55.14
2018-05-25T15:33:56.844Z,54.85
2018-05-25T15:35:54.887Z,54.46
2018-05-25T15:36:54.792Z,54.75
2018-05-25T15:38:53.722Z,54.75
2018-05-25T15:39:53.620Z,54.46
2018-05-25T15:41:50.139Z,54.66
2018-05-25T15:42:49.611Z,54.56
2018-05-25T15:44:45.596Z,54.56
2018-05-25T15:45:46.589Z,53.78
2018-05-25T15:47:42.577Z,54.56
2018-05-25T15:48:42.433Z,53.39
2018-05-25T15:50:42.908Z,54.36
2018-05-25T15:51:42.902Z,54.17
2018-05-25T15:53:39.393Z,53.81
2018-05-25T15:54:38.857Z,53.81
2018-05-25T15:56:35.354Z,54.39
2018-05-25T15:57:35.362Z,54.78
2018-05-25T15:59:36.316Z,52.25
2018-05-25T16:00:36.303Z,53.54
2018-05-25T16:02:33.373Z,53.25
2018-05-25T16:03:34.333Z,53.35
2018-05-25T16:05:31.352Z,52.47
2018-05-25T16:06:31.481Z,52.37
2018-05-25T16:08:29.537Z,53.45
2018-05-25T16:09:30.307Z,53.64
2018-05-25T16:11:27.980Z,51.43
2018-05-25T16:12:27.448Z,51.72
2018-05-25T16:14:25.588Z,51.60
2018-05-25T16:15:25.593Z,51.01
2018-05-25T16:17:22.600Z,51.60
2018-05-25T16:18:22.566Z,52.28
2018-05-25T16:20:17.539Z,53.32
2018-05-25T16:21:17.060Z,52.52
2018-05-25T16:23:15.019Z,53.69
2018-05-25T16:24:14.996Z,53.95
2018-05-25T16:26:13.243Z,54.92
2018-05-25T16:27:14.013Z,55.31
2018-05-25T16:29:09.703Z,56.40
2018-05-25T16:30:10.060Z,56.30
2018-05-25T16:32:08.615Z,54.85
2018-05-25T16:33:07.274Z,54.46
2018-05-25T16:35:06.272Z,53.78
2018-05-25T16:36:05.548Z,54.36
2018-05-25T16:38:01.418Z,53.56
2018-05-25T16:39:02.335Z,54.07
2018-05-25T16:40:59.904Z,55.04
2018-05-25T16:41:59.551Z,54.94
2018-05-25T16:43:57.596Z,55.60
2018-05-25T16:44:58.528Z,54.72
2018-05-25T16:46:59.026Z,56.37
2018-05-25T16:47:56.506Z,56.35
2018-05-25T16:49:53.658Z,57.42
2018-05-25T16:50:53.700Z,57.03
2018-05-25T16:52:54.158Z,59.36
2018-05-25T16:53:54.136Z,59.45
2018-05-25T16:55:51.597Z,56.64
2018-05-25T16:56:50.618Z,57.32
2018-05-25T16:58:46.109Z,57.03
2018-05-25T16:59:46.080Z,56.74
2018-05-25T17:01:42.565Z,57.51
2018-05-25T17:02:42.543Z,57.03
2018-05-25T17:04:42.529Z,57.03
2018-05-25T17:05:43.530Z,58.48
2018-05-25T17:07:38.542Z,58.97
2018-05-25T17:08:38.496Z,59.64
2018-05-25T17:10:37.586Z,58.48
2018-05-25T17:11:36.716Z,57.42
2018-05-25T17:13:35.185Z,57.68
2018-05-25T17:14:34.803Z,58.84
2018-05-25T17:16:31.277Z,59.42
2018-05-25T17:17:30.776Z,59.42
2018-05-25T17:19:26.730Z,59.91
2018-05-25T17:20:28.296Z,60.88
2018-05-25T17:22:22.683Z,60.58
2018-05-25T17:23:24.254Z,60.88
2018-05-25T17:25:21.695Z,60.20
2018-05-25T17:26:20.844Z,60.39
2018-05-25T17:28:17.311Z,60.78
2018-05-25T17:31:17.304Z,61.36
2018-05-25T17:32:17.824Z,60.30
2018-05-25T17:34:15.515Z,61.17
2018-05-25T17:35:17.263Z,61.07
2018-05-25T17:37:17.951Z,61.65
2018-05-25T17:38:16.020Z,60.10
2018-05-25T17:40:14.079Z,60.17
2018-05-25T17:41:14.123Z,61.14
2018-05-25T17:43:11.078Z,62.20
2018-05-25T17:44:11.603Z,62.79
2018-05-25T17:46:07.569Z,63.85
2018-05-25T17:47:07.508Z,63.56
2018-05-25T17:49:03.502Z,62.79
2018-05-25T17:50:02.988Z,62.49
2018-05-25T17:52:01.491Z,62.40
2018-05-25T17:53:01.928Z,62.49
2018-05-25T17:55:02.671Z,62.69
2018-05-25T17:56:02.594Z,63.59
2018-05-25T17:58:03.071Z,63.85
2018-05-25T17:59:03.552Z,63.46
2018-05-25T18:01:01.189Z,63.56
2018-05-25T18:02:01.195Z,64.72
2018-05-25T18:04:00.623Z,65.11
2018-05-25T18:04:59.127Z,65.40
2018-05-25T18:06:55.111Z,65.01
2018-05-25T18:07:56.098Z,64.92
2018-05-25T18:09:54.084Z,65.89
2018-05-25T18:10:53.066Z,65.40
2018-05-25T18:12:51.052Z,65.69
2018-05-25T18:13:51.544Z,65.79
2018-05-25T18:15:52.499Z,65.40
2018-05-25T18:16:51.496Z,64.62
2018-05-25T18:18:47.526Z,64.92
2018-05-25T18:19:47.483Z,66.24
2018-05-25T18:21:43.948Z,66.14
2018-05-25T18:22:43.412Z,66.82
2018-05-25T18:24:43.801Z,63.43
2018-05-25T18:25:41.553Z,66.05
2018-05-25T18:27:39.509Z,67.79
2018-05-25T18:28:39.513Z,66.82
2018-05-25T18:30:38.987Z,64.50
2018-05-25T18:31:37.724Z,64.20
2018-05-25T18:33:37.540Z,65.56
2018-05-25T18:34:35.813Z,64.79
2018-05-25T18:36:33.746Z,63.53
2018-05-25T18:37:33.762Z,62.85
2018-05-25T18:39:31.739Z,63.53
2018-05-25T18:40:32.744Z,63.72
2018-05-25T18:42:29.944Z,67.50
2018-05-25T18:43:29.913Z,67.11
2018-05-25T18:45:27.900Z,63.62
2018-05-25T18:46:27.895Z,64.30
2018-05-25T18:48:26.374Z,66.43
2018-05-25T18:49:26.779Z,66.60
2018-05-25T18:51:23.846Z,66.88
2018-05-25T18:52:23.781Z,67.08
2018-05-25T18:54:20.270Z,66.30
2018-05-25T18:55:20.276Z,67.08
2018-05-25T18:57:15.725Z,68.53
2018-05-25T18:58:15.733Z,68.82
2018-05-25T19:00:14.191Z,67.46
2018-05-25T19:01:13.663Z,67.27
2018-05-25T19:03:23.632Z,70.04
2018-05-25T19:04:20.874Z,69.75
2018-05-25T19:06:16.843Z,69.85
2018-05-25T19:07:16.879Z,67.33
2018-05-25T19:09:17.937Z,69.75
2018-05-25T19:10:17.514Z,70.04
2018-05-25T19:12:15.253Z,70.04